Time;durP1;ratioP1;P1;durP2;ratioP2;P2;SDS_P1;SDS_P2;PMS_P1;PMS_P2;Temp;Humidity;BMP_temperature;BMP_pressure;BME280_temperature;BME280_humidity;BME280_pressure;Samples;Min_cycle;Max_cycle;Signal;HPM_P1;HPM_P2
2022/06/07 00:00:13;;;;;;;9.43;9.00;;;;;;;15.21;88.34;92861.25;5981834;24;20163;-80
2022/06/07 00:02:38;;;;;;;11.03;10.23;;;;;;;15.07;90.05;92860.53;5973269;24;20199;-81
2022/06/07 00:05:04;;;;;;;13.17;8.83;;;;;;;14.88;90.73;92854.72;5973495;24;20266;-81
2022/06/07 00:07:30;;;;;;;9.87;8.90;;;;;;;14.92;91.76;92863.53;5972238;24;20208;-81
2022/06/07 00:09:56;;;;;;;9.60;9.10;;;;;;;14.85;90.86;92853.44;5981894;24;20208;-81
2022/06/07 00:12:22;;;;;;;10.03;9.53;;;;;;;15.01;89.41;92845.97;5973092;24;20207;-81
2022/06/07 00:14:48;;;;;;;10.13;9.63;;;;;;;14.84;89.18;92857.16;5981789;24;20171;-81
2022/06/07 00:17:14;;;;;;;9.73;9.13;;;;;;;14.73;89.69;92855.03;5973892;24;20208;-81
2022/06/07 00:19:39;;;;;;;9.97;9.37;;;;;;;14.81;89.07;92862.22;5982098;24;20199;-81
2022/06/07 00:22:06;;;;;;;10.70;9.90;;;;;;;14.79;89.02;92859.88;5974214;24;20236;-81
2022/06/07 00:24:32;;;;;;;9.50;9.10;;;;;;;14.88;89.35;92873.09;5981474;24;20201;-81
2022/06/07 00:26:57;;;;;;;11.00;10.47;;;;;;;14.86;89.48;92870.78;5971740;24;20208;-81
2022/06/07 00:29:25;;;;;;;10.80;10.07;;;;;;;14.60;89.92;92842.72;5948721;24;20174;-81
2022/06/07 00:31:50;;;;;;;10.53;9.97;;;;;;;14.75;90.22;92866.03;5975728;24;20218;-81
2022/06/07 00:34:16;;;;;;;10.00;9.50;;;;;;;14.56;90.95;92844.38;5984556;24;20168;-81
2022/06/07 00:36:42;;;;;;;9.87;9.37;;;;;;;14.79;90.77;92874.88;5949668;24;20270;-81
2022/06/07 00:39:08;;;;;;;9.37;8.87;;;;;;;14.92;90.84;92863.53;5974545;24;20222;-80
2022/06/07 00:41:34;;;;;;;9.90;9.30;;;;;;;14.99;90.77;92863.91;5978069;24;20207;-81
2022/06/07 00:44:18;;;;;;;9.20;8.80;;;;;;;15.01;91.46;92867.00;5974427;24;20195;-81
2022/06/07 00:46:45;;;;;;;9.90;9.40;;;;;;;15.18;89.95;92848.72;5977342;24;20251;-81
2022/06/07 00:49:12;;;;;;;9.23;8.73;;;;;;;15.32;89.25;92865.19;5983752;24;20780;-81
2022/06/07 00:51:39;;;;;;;9.50;9.00;;;;;;;15.13;90.39;92843.59;5973939;24;20218;-81
2022/06/07 00:54:05;;;;;;;8.97;8.47;;;;;;;15.40;90.00;92869.78;5983748;24;20171;-81
2022/06/07 00:56:31;;;;;;;9.67;9.03;;;;;;;15.40;89.87;92869.78;5949395;24;20212;-81
2022/06/07 00:59:00;;;;;;;10.27;9.77;;;;;;;15.39;89.23;92855.06;5974769;24;20162;-79
2022/06/07 01:01:26;;;;;;;9.67;9.17;;;;;;;15.29;89.69;92852.66;5978136;24;21038;-79
2022/06/07 01:03:52;;;;;;;10.57;10.00;;;;;;;15.16;89.25;92811.44;5983899;24;20266;-79
2022/06/07 01:11:45;;;;;;;10.80;10.10;;;;;;;15.35;91.51;92865.38;5976798;24;20230;-79
2022/06/07 01:14:11;;;;;;;9.73;9.20;;;;;;;15.43;91.99;92848.13;5983476;24;20155;-81
2022/06/07 01:16:36;;;;;;;11.07;10.00;;;;;;;15.45;91.50;92856.50;5977562;24;20227;-80
2022/06/07 01:19:01;;;;;;;11.57;10.67;;;;;;;15.39;91.40;92834.78;5983428;24;20651;-79
2022/06/07 01:21:36;;;;;;;10.77;10.07;;;;;;;15.40;91.45;92825.03;5977943;24;20695;-80
2022/06/07 01:24:02;;;;;;;10.20;9.40;;;;;;;15.57;91.83;92867.22;5983510;24;20186;-80
2022/06/07 01:26:27;;;;;;;10.47;9.87;;;;;;;15.55;92.02;92866.75;5978006;24;20275;-79
2022/06/07 01:28:53;;;;;;;11.13;10.43;;;;;;;15.40;91.95;92846.09;5949952;24;20176;-80
2022/06/07 01:31:19;;;;;;;10.73;9.93;;;;;;;15.46;92.01;92860.66;5978873;24;20207;-79
2022/06/07 01:33:44;;;;;;;10.60;9.90;;;;;;;15.33;92.15;92856.25;5983887;24;20163;-79
2022/06/07 01:36:13;;;;;;;11.57;10.70;;;;;;;14.31;92.71;92751.16;5979273;24;20214;-79
2022/06/07 01:38:41;;;;;;;11.90;11.00;;;;;;;15.12;93.73;92876.22;5949942;24;20168;-80
2022/06/07 01:43:52;;;;;;;11.10;10.40;;;;;;;14.95;92.68;92865.56;5973738;24;20236;-80
2022/06/07 01:46:18;;;;;;;10.80;10.13;;;;;;;14.87;93.90;92874.94;5949396;24;20207;-80
2022/06/07 01:48:48;;;;;;;11.43;10.73;;;;;;;14.66;94.70;92844.16;5982937;24;20159;-80
2022/06/07 01:51:14;;;;;;;10.60;9.90;;;;;;;14.80;94.32;92871.94;5977473;24;20671;-81
2022/06/07 01:53:40;;;;;;;10.80;10.00;;;;;;;14.52;93.99;92826.59;5982907;24;20167;-80
2022/06/07 01:56:08;;;;;;;10.70;9.97;;;;;;;14.80;93.08;92865.94;5978856;24;20214;-79
2022/06/07 01:58:34;;;;;;;10.47;9.67;;;;;;;14.28;92.98;92797.19;5983189;24;20219;-80
2022/06/07 02:01:01;;;;;;;9.90;9.40;;;;;;;14.69;93.49;92854.88;5979463;24;20219;-80
2022/06/07 02:03:26;;;;;;;10.50;9.90;;;;;;;14.58;92.00;92837.78;5982776;24;20254;-79
2022/06/07 02:05:56;;;;;;;9.47;8.87;;;;;;;14.61;92.05;92849.53;5980011;24;20203;-79
2022/06/07 02:08:22;;;;;;;10.00;9.40;;;;;;;14.22;92.04;92794.94;5982646;24;20193;-80
2022/06/07 02:10:47;;;;;;;9.83;9.33;;;;;;;14.37;92.19;92821.69;5948673;24;20208;-79
2022/06/07 02:13:13;;;;;;;10.10;9.60;;;;;;;14.49;92.10;92835.06;5983234;24;20905;-79
2022/06/07 02:15:38;;;;;;;9.60;9.10;;;;;;;14.64;92.24;92854.19;5980844;24;20248;-80
2022/06/07 02:18:03;;;;;;;9.97;9.47;;;;;;;14.72;91.85;92851.66;5972444;24;20171;-80
2022/06/07 02:20:29;;;;;;;11.00;10.17;;;;;;;14.27;93.60;92811.38;5981183;24;20148;-80
2022/06/07 02:22:54;;;;;;;10.20;9.60;;;;;;;14.23;93.59;92805.16;5982508;24;20223;-79
2022/06/07 02:25:20;;;;;;;10.47;9.87;;;;;;;14.05;94.45;92784.28;5981433;24;20187;-81
2022/06/07 02:27:45;;;;;;;10.70;10.10;;;;;;;14.65;93.78;92853.91;5983027;24;20170;-79
2022/06/07 02:30:11;;;;;;;10.57;9.97;;;;;;;14.46;93.60;92824.38;5949440;24;20188;-79
2022/06/07 02:32:38;;;;;;;10.33;9.73;;;;;;;13.90;93.81;92747.88;5973274;24;20196;-80
2022/06/07 02:35:05;;;;;;;9.60;9.10;;;;;;;14.68;93.15;92845.41;5949456;24;20235;-79
2022/06/07 02:37:33;;;;;;;11.00;10.00;;;;;;;14.73;92.99;92862.91;5973208;24;20234;-81
2022/06/07 02:39:59;;;;;;;10.10;9.60;;;;;;;14.63;93.20;92845.53;5949076;24;20174;-80
2022/06/07 02:42:27;;;;;;;10.30;9.80;;;;;;;14.52;93.17;92821.34;5973671;24;20208;-80
2022/06/07 02:44:52;;;;;;;10.60;9.97;;;;;;;14.78;92.95;92860.97;5949024;24;20187;-79
2022/06/07 02:47:18;;;;;;;11.10;10.17;;;;;;;14.66;93.40;92839.69;5974040;24;20215;-80
2022/06/07 02:49:43;;;;;;;11.13;10.13;;;;;;;14.93;93.38;92857.97;5948497;24;20167;-80
2022/06/07 02:52:09;;;;;;;10.80;9.67;;;;;;;14.58;93.58;92802.84;5974165;24;20212;-80
2022/06/07 02:54:38;;;;;;;10.47;9.87;;;;;;;14.85;94.30;92848.19;5982521;24;20168;-79
2022/06/07 02:57:04;;;;;;;10.93;10.37;;;;;;;14.76;94.49;92855.22;5948129;24;20300;-79
2022/06/07 02:59:29;;;;;;;10.60;9.83;;;;;;;14.24;95.90;92827.72;5981523;24;20174;-80
2022/06/07 03:01:55;;;;;;;10.43;9.83;;;;;;;14.65;94.55;92868.88;5974576;24;20207;-80
2022/06/07 03:04:20;;;;;;;9.37;8.77;;;;;;;14.37;95.72;92862.91;5983067;24;20183;-80
2022/06/07 03:06:46;;;;;;;10.57;9.97;;;;;;;14.51;95.09;92884.69;5975700;24;20211;-79
2022/06/07 03:09:11;;;;;;;10.17;9.67;;;;;;;14.12;94.90;92827.44;5973724;24;20743;-80
2022/06/07 03:11:36;;;;;;;10.00;9.40;;;;;;;14.29;95.09;92851.25;5976293;24;20214;-79
2022/06/07 03:14:02;;;;;;;10.50;9.97;;;;;;;14.67;93.85;92874.63;5982545;24;20152;-80
2022/06/07 03:16:28;;;;;;;11.13;10.13;;;;;;;14.93;93.24;92896.63;5976962;24;20207;-80
2022/06/07 03:18:53;;;;;;;11.23;10.50;;;;;;;14.71;93.22;92862.47;5982353;24;20163;-80
2022/06/07 03:21:19;;;;;;;11.13;10.53;;;;;;;15.08;93.42;92902.31;5977698;24;20211;-80
2022/06/07 03:23:45;;;;;;;11.00;10.20;;;;;;;14.67;93.03;92840.47;5981993;24;20661;-80
2022/06/07 03:26:12;;;;;;;10.53;9.87;;;;;;;15.11;93.66;92901.75;5978124;24;20207;-79
2022/06/07 03:28:37;;;;;;;10.97;10.27;;;;;;;14.97;94.58;92892.34;5982488;24;20231;-92
2022/06/07 03:31:08;;;;;;;10.40;9.80;;;;;;;15.02;95.12;92885.13;5978508;24;20207;-87
2022/06/07 03:33:34;;;;;;;10.37;9.67;;;;;;;15.35;93.79;92910.09;5982990;24;20163;-88
2022/06/07 03:36:09;;;;;;;10.97;10.23;;;;;;;15.34;93.20;92907.78;5973427;24;20210;-88
2022/06/07 03:38:35;;;;;;;12.03;11.03;;;;;;;15.29;94.77;92889.47;5982565;24;20166;-89
2022/06/07 03:41:01;;;;;;;12.30;11.23;;;;;;;15.64;93.75;92896.53;5978477;24;20218;-88
2022/06/07 03:43:26;;;;;;;12.37;11.43;;;;;;;15.70;92.49;92903.22;5982742;24;20186;-87
2022/06/07 03:45:52;;;;;;;11.37;10.67;;;;;;;15.85;91.45;92893.09;5978820;24;20210;-86
2022/06/07 03:48:17;;;;;;;11.63;10.87;;;;;;;15.82;91.37;92903.44;5982044;24;20219;-71
2022/06/07 03:50:42;;;;;;;11.83;11.13;;;;;;;15.74;91.38;92893.63;5979237;24;20211;-72
2022/06/07 03:53:08;;;;;;;11.87;11.07;;;;;;;15.65;92.91;92904.13;5979826;24;20164;-72
2022/06/07 03:55:33;;;;;;;12.17;11.37;;;;;;;15.45;93.65;92867.03;5979321;24;20207;-75
2022/06/07 03:57:59;;;;;;;11.60;10.87;;;;;;;15.69;93.04;92899.03;5981593;24;20172;-70
2022/06/07 04:00:25;;;;;;;12.23;11.30;;;;;;;15.60;92.98;92893.72;5979874;24;20219;-71
2022/06/07 04:02:50;;;;;;;12.80;12.00;;;;;;;15.59;93.78;92900.09;5981139;24;20167;-71
2022/06/07 04:05:15;;;;;;;11.80;11.00;;;;;;;15.67;93.16;92890.66;5980483;24;20191;-70
2022/06/07 04:10:25;;;;;;;10.73;10.13;;;;;;;15.63;91.50;92852.84;5982554;24;20170;-74
2022/06/07 04:12:50;;;;;;;11.17;10.20;;;;;;;16.01;90.48;92896.88;5984067;24;20164;-70
2022/06/07 04:15:16;;;;;;;10.97;10.23;;;;;;;16.19;88.14;92887.16;5982749;24;20160;-72
2022/06/07 04:17:41;;;;;;;11.03;10.40;;;;;;;16.61;85.86;92893.63;5983859;24;20183;-71
2022/06/07 04:20:07;;;;;;;10.40;9.80;;;;;;;16.77;84.46;92897.38;5974394;24;20200;-72
2022/06/07 04:22:33;;;;;;;9.40;8.80;;;;;;;16.72;83.99;92905.44;5974412;24;20211;-71
2022/06/07 04:24:58;;;;;;;11.50;10.70;;;;;;;16.92;83.26;92910.91;5974532;24;20199;-70
2022/06/07 04:27:24;;;;;;;11.03;10.43;;;;;;;16.72;84.90;92905.44;5974230;24;20208;-69
2022/06/07 04:29:49;;;;;;;11.10;10.33;;;;;;;16.78;85.75;92915.53;5983871;24;20164;-71
2022/06/07 04:32:16;;;;;;;10.60;10.00;;;;;;;16.79;86.55;92921.59;5975431;24;20263;-72
2022/06/07 04:34:42;;;;;;;12.23;11.40;;;;;;;16.86;86.14;92914.00;5974186;24;20171;-75
2022/06/07 04:37:07;;;;;;;11.80;10.80;;;;;;;16.44;86.75;92914.66;5975496;24;20231;-76
2022/06/07 04:39:33;;;;;;;11.90;11.20;;;;;;;16.54;86.84;92914.41;5950057;24;20168;-76
2022/06/07 04:41:58;;;;;;;12.47;11.47;;;;;;;16.60;85.47;92911.34;5975713;24;20211;-76
2022/06/07 04:44:24;;;;;;;13.37;10.40;;;;;;;16.74;84.16;92890.88;5983484;24;20214;-76
2022/06/07 04:46:49;;;;;;;11.20;10.23;;;;;;;17.24;82.33;92904.41;5976577;24;20207;-75
2022/06/07 04:49:15;;;;;;;11.23;10.37;;;;;;;17.50;82.44;92916.50;5983482;24;20179;-76
2022/06/07 04:51:40;;;;;;;11.40;10.60;;;;;;;17.38;82.08;92891.81;5973550;24;20212;-76
2022/06/07 04:54:06;;;;;;;11.80;11.00;;;;;;;17.48;81.23;92918.69;5983387;24;20171;-76
2022/06/07 04:56:34;;;;;;;11.67;10.77;;;;;;;17.48;81.50;92918.69;5977904;24;20250;-76
2022/06/07 04:59:02;;;;;;;12.80;11.80;;;;;;;17.58;80.86;92913.09;5983357;24;20160;-76
2022/06/07 05:01:30;;;;;;;12.73;11.70;;;;;;;17.67;80.71;92910.41;5977591;24;20226;-76
2022/06/07 05:03:56;;;;;;;12.77;11.70;;;;;;;17.76;80.23;92905.13;5983313;24;20211;-74
2022/06/07 05:06:28;;;;;;;14.20;13.07;;;;;;;17.83;81.07;92929.97;5978218;24;20215;-76
2022/06/07 05:08:57;;;;;;;13.00;12.00;;;;;;;18.10;81.09;92934.84;5982557;24;20168;-76
2022/06/07 05:11:22;;;;;;;14.30;13.03;;;;;;;17.91;83.00;92942.38;5977944;24;20195;-76
2022/06/07 05:13:48;;;;;;;14.60;13.33;;;;;;;17.99;82.92;92946.09;5973478;24;20227;-76
2022/06/07 05:16:13;;;;;;;16.17;14.80;;;;;;;17.26;88.11;92936.53;5973372;24;20213;-76
2022/06/07 05:18:39;;;;;;;18.10;16.23;;;;;;;16.80;92.28;92938.97;5982874;24;20163;-75
2022/06/07 05:21:09;;;;;;;20.70;18.83;;;;;;;16.91;92.65;92941.00;5976842;24;20204;-71
2022/06/07 05:23:35;;;;;;;18.37;16.63;;;;;;;16.85;93.56;92947.50;5973247;24;20191;-73
2022/06/07 05:26:06;;;;;;;19.57;17.50;;;;;;;17.00;92.68;92939.16;5978872;24;20212;-72
2022/06/07 05:28:33;;;;;;;21.23;17.17;;;;;;;17.27;91.13;92956.53;5982655;24;20158;-72
2022/06/07 05:30:58;;;;;;;18.33;16.43;;;;;;;17.10;90.93;92936.22;5948571;24;20223;-73
2022/06/07 05:33:24;;;;;;;16.90;15.37;;;;;;;17.38;90.14;92945.38;5971871;24;20167;-74
2022/06/07 05:35:49;;;;;;;18.70;16.97;;;;;;;17.65;89.44;92943.50;5979892;24;20214;-71
2022/06/07 05:38:16;;;;;;;18.10;16.40;;;;;;;18.20;86.66;92937.16;5982322;24;20167;-71
2022/06/07 05:40:41;;;;;;;15.73;14.33;;;;;;;19.49;79.48;92940.63;5979754;24;20206;-72
2022/06/07 05:43:07;;;;;;;18.13;14.07;;;;;;;21.42;71.33;92949.56;5982096;24;20160;-72
2022/06/07 05:45:32;;;;;;;14.40;13.17;;;;;;;22.90;64.09;92948.91;5980007;24;20212;-71
2022/06/07 05:47:58;;;;;;;14.88;13.43;;;;;;;23.77;61.46;92959.19;5981815;24;20192;-70
2022/06/07 05:50:25;;;;;;;15.07;13.77;;;;;;;22.75;63.23;92951.59;5980818;24;20167;-70
2022/06/07 05:52:51;;;;;;;15.57;14.10;;;;;;;21.99;65.61;92951.94;5972780;24;21077;-69
2022/06/07 05:55:16;;;;;;;15.90;14.40;;;;;;;21.30;69.00;92946.16;5980945;24;20245;-72
2022/06/07 05:57:44;;;;;;;15.88;14.23;;;;;;;20.77;70.00;92938.47;5971263;24;20166;-73
2022/06/07 06:00:10;;;;;;;16.30;14.77;;;;;;;19.95;74.80;92955.47;5972773;24;20234;-73
2022/06/07 06:02:36;;;;;;;15.55;14.05;;;;;;;22.47;66.11;92942.91;5971749;24;20217;-74
2022/06/07 06:05:01;;;;;;;14.90;13.40;;;;;;;25.76;54.39;92956.41;5982449;24;20191;-73
2022/06/07 06:07:28;;;;;;;19.85;14.93;;;;;;;26.47;52.68;92964.16;5972639;24;20656;-71
2022/06/07 06:12:37;;;;;;;13.00;11.90;;;;;;;29.73;43.03;92964.72;5944502;24;20191;-74
2022/06/07 06:15:03;;;;;;;14.32;13.02;;;;;;;26.45;50.08;92953.03;5950031;24;20160;-78
2022/06/07 06:17:30;;;;;;;15.43;14.05;;;;;;;24.30;57.12;92953.75;5971028;24;20207;-79
2022/06/07 06:19:56;;;;;;;15.55;13.90;;;;;;;23.86;58.33;92951.75;5981886;24;20167;-75
2022/06/07 06:22:21;;;;;;;14.77;13.32;;;;;;;24.18;58.35;92942.47;5971437;24;20244;-74
2022/06/07 06:24:46;;;;;;;14.73;13.30;;;;;;;26.54;51.98;92952.72;5947899;24;20198;-75
2022/06/07 06:27:12;;;;;;;12.27;11.38;;;;;;;30.35;43.10;92970.28;5973088;24;20227;-73
2022/06/07 06:29:37;;;;;;;13.02;11.52;;;;;;;31.37;40.66;92966.16;5981081;24;20160;-74
2022/06/07 06:32:03;;;;;;;11.80;10.48;;;;;;;29.70;43.17;92943.97;5973099;24;20218;-74
2022/06/07 06:34:29;;;;;;;13.25;11.27;;;;;;;30.07;40.93;92950.75;5981426;24;20186;-76
2022/06/07 06:36:58;;;;;;;12.30;11.20;;;;;;;30.76;39.58;92938.88;5971234;24;20214;-75
2022/06/07 06:39:24;;;;;;;11.50;10.32;;;;;;;31.94;37.05;92951.72;5981479;24;20178;-74
2022/06/07 06:41:50;;;;;;;12.15;11.18;;;;;;;31.30;38.78;92950.81;5974374;24;20269;-75
2022/06/07 06:44:15;;;;;;;10.90;10.05;;;;;;;30.08;40.97;92939.59;5981527;24;20183;-85
2022/06/07 06:46:45;;;;;;;13.45;12.25;;;;;;;27.56;47.42;92918.66;5947777;24;20212;-80
2022/06/07 06:49:13;;;;;;;12.00;11.15;;;;;;;26.43;50.24;92933.09;5981872;24;20170;-83
2022/06/07 06:51:41;;;;;;;12.60;11.68;;;;;;;25.03;55.54;92934.75;5975422;24;20203;-81
2022/06/07 06:54:08;;;;;;;12.70;11.48;;;;;;;24.35;57.56;92934.78;5981196;24;20166;-80
2022/06/07 06:56:34;;;;;;;13.50;12.40;;;;;;;23.88;59.38;92928.94;5975516;24;20215;-80
2022/06/07 06:58:59;;;;;;;14.52;13.25;;;;;;;22.62;64.83;92926.97;5981543;24;20222;-81
2022/06/07 07:01:31;;;;;;;13.70;12.50;;;;;;;22.96;65.63;92920.13;5976225;24;20213;-81
2022/06/07 07:04:01;;;;;;;13.60;11.80;;;;;;;24.18;62.13;92931.81;5981196;24;20193;-78
2022/06/07 07:06:28;;;;;;;14.25;13.05;;;;;;;23.49;64.40;92928.16;5976526;24;20207;-80
2022/06/07 07:08:57;;;;;;;13.05;11.95;;;;;;;23.50;61.91;92929.69;5947644;24;20559;-77
2022/06/07 07:11:37;;;;;;;15.65;13.30;;;;;;;22.87;62.96;92912.34;5976419;24;20216;-80
2022/06/07 07:14:03;;;;;;;15.63;14.20;;;;;;;22.03;65.96;92905.72;5971988;24;20225;-80
2022/06/07 07:16:31;;;;;;;15.60;14.30;;;;;;;20.84;73.17;92912.91;5946826;24;20206;-78
2022/06/07 07:18:58;;;;;;;15.57;14.02;;;;;;;21.67;68.07;92905.09;5981610;24;20219;-79
2022/06/07 07:21:26;;;;;;;14.52;13.23;;;;;;;21.56;70.07;92917.31;5974736;24;20196;-81
2022/06/07 07:23:52;;;;;;;15.23;13.98;;;;;;;21.41;70.99;92918.03;5981111;24;20240;-81
2022/06/07 07:26:23;;;;;;;15.50;14.20;;;;;;;21.84;69.63;92912.78;5976403;24;20223;-80
2022/06/07 07:28:49;;;;;;;15.65;14.25;;;;;;;21.97;70.68;92911.63;5947580;24;20193;-75
2022/06/07 07:31:22;;;;;;;15.10;13.55;;;;;;;21.99;69.69;92891.53;5976943;24;20212;-77
2022/06/07 07:33:48;;;;;;;14.02;12.82;;;;;;;21.91;66.93;92899.69;5980840;24;20229;-77
2022/06/07 07:36:14;;;;;;;15.00;13.57;;;;;;;21.36;70.85;92912.94;5976902;24;20209;-76
2022/06/07 07:38:41;;;;;;;15.80;13.73;;;;;;;21.69;69.51;92908.19;5977133;24;20166;-76
2022/06/07 07:41:23;;;;;;;14.73;13.63;;;;;;;21.62;68.65;92915.97;5948441;24;20213;-79
2022/06/07 07:43:51;;;;;;;16.17;14.73;;;;;;;21.31;69.82;92911.31;5982536;24;20209;-74
2022/06/07 07:46:18;;;;;;;14.43;12.98;;;;;;;21.77;70.58;92897.44;5978260;24;20262;-79
2022/06/07 07:48:43;;;;;;;16.23;14.73;;;;;;;22.08;69.52;92902.03;5982785;24;20160;-75
2022/06/07 07:51:18;;;;;;;15.55;13.25;;;;;;;21.98;68.44;92902.53;5973009;24;20704;-74
2022/06/07 07:53:44;;;;;;;13.38;12.07;;;;;;;22.10;68.39;92894.50;5973754;24;20189;-74
2022/06/07 07:56:10;;;;;;;13.80;12.52;;;;;;;22.07;65.93;92885.28;5978658;24;20262;-74
2022/06/07 07:58:35;;;;;;;14.18;13.07;;;;;;;22.00;68.51;92887.78;5982853;24;20172;-72
2022/06/07 08:01:10;;;;;;;14.63;13.25;;;;;;;22.43;65.54;92881.59;5979196;24;20213;-75
2022/06/07 08:03:37;;;;;;;13.45;11.90;;;;;;;22.46;64.62;92885.47;5983072;24;20184;-73
2022/06/07 08:06:05;;;;;;;14.13;12.90;;;;;;;22.34;62.69;92882.88;5973635;24;20221;-73
2022/06/07 08:08:30;;;;;;;12.82;11.85;;;;;;;22.15;63.87;92875.59;5973242;24;20172;-74
2022/06/07 08:10:56;;;;;;;12.18;11.32;;;;;;;22.38;64.38;92870.47;5979681;24;20213;-75
2022/06/07 08:13:21;;;;;;;12.07;11.07;;;;;;;22.24;65.67;92868.25;5982626;24;20172;-74
2022/06/07 08:15:46;;;;;;;15.07;10.48;;;;;;;22.02;65.84;92826.28;5979948;24;20216;-74
2022/06/07 08:18:12;;;;;;;12.15;11.35;;;;;;;22.42;61.33;92868.66;5982384;24;20168;-74
2022/06/07 08:20:38;;;;;;;10.98;10.02;;;;;;;22.35;59.70;92858.59;5980091;24;20256;-75
2022/06/07 08:23:05;;;;;;;11.23;10.52;;;;;;;22.47;62.03;92857.75;5981502;24;20178;-75
2022/06/07 08:25:31;;;;;;;10.60;9.90;;;;;;;22.38;58.09;92855.28;5948574;24;20256;-75
2022/06/07 08:27:57;;;;;;;10.35;9.75;;;;;;;22.43;58.47;92852.34;5982735;24;20165;-73
2022/06/07 08:30:23;;;;;;;11.90;10.95;;;;;;;22.37;59.99;92847.66;5973412;24;20169;-75
2022/06/07 08:32:48;;;;;;;10.13;9.52;;;;;;;22.15;55.67;92851.66;5982419;24;20219;-74
2022/06/07 08:38:01;;;;;;;11.65;10.65;;;;;;;22.56;59.50;92845.06;5982628;24;20172;-72
2022/06/07 08:40:33;;;;;;;10.40;9.80;;;;;;;22.60;58.31;92856.56;5981155;24;20286;-76
2022/06/07 08:43:01;;;;;;;11.35;10.55;;;;;;;22.72;59.94;92854.56;5982463;24;20162;-74
2022/06/07 08:45:37;;;;;;;10.15;9.55;;;;;;;22.90;55.23;92845.06;5980961;24;20212;-74
2022/06/07 08:48:26;;;;;;;9.63;9.02;;;;;;;22.98;58.86;92857.41;5982906;24;20225;-73
2022/06/07 08:51:17;;;;;;;10.43;9.73;;;;;;;23.06;53.78;92859.13;5979191;24;20209;-76
2022/06/07 08:53:47;;;;;;;10.45;9.80;;;;;;;22.86;53.33;92846.09;5948845;24;20236;-74
2022/06/07 08:56:21;;;;;;;10.20;9.60;;;;;;;22.60;56.08;92840.59;5978574;24;20210;-74
2022/06/07 08:58:51;;;;;;;10.60;9.80;;;;;;;22.91;54.17;92819.97;5973320;24;20271;-77
2022/06/07 09:01:48;;;;;;;9.50;8.90;;;;;;;23.30;51.68;92839.47;5977754;24;20328;-76
2022/06/07 09:04:29;;;;;;;8.52;8.13;;;;;;;23.28;48.01;92839.03;5982628;24;20207;-76
2022/06/07 09:07:03;;;;;;;9.40;8.90;;;;;;;23.01;48.79;92830.09;5975360;24;20293;-74
2022/06/07 09:12:21;;;;;;;9.43;8.82;;;;;;;23.22;46.74;92827.84;5973971;24;20220;-72
2022/06/07 09:14:47;;;;;;;9.35;8.85;;;;;;;23.13;43.07;92829.19;5949225;24;20174;-74
2022/06/07 09:17:28;;;;;;;10.23;9.63;;;;;;;23.31;45.64;92831.13;5948201;24;20220;-73
2022/06/07 09:19:54;;;;;;;9.98;9.38;;;;;;;23.55;47.33;92827.34;5982391;24;20162;-72
2022/06/07 09:22:29;;;;;;;10.13;9.50;;;;;;;23.59;46.33;92820.22;5946808;24;20211;-72
2022/06/07 09:25:02;;;;;;;9.75;8.98;;;;;;;23.51;47.67;92829.97;5973340;24;20193;-72
2022/06/07 09:27:32;;;;;;;10.77;10.07;;;;;;;23.47;47.28;92823.78;5972488;24;20213;-73
2022/06/07 09:30:17;;;;;;;10.30;9.70;;;;;;;23.64;47.94;92822.59;5982438;24;20190;-72
2022/06/07 09:32:45;;;;;;;9.82;9.25;;;;;;;23.71;47.78;92826.16;5948186;24;20203;-73
2022/06/07 09:35:42;;;;;;;9.70;9.10;;;;;;;23.71;47.56;92812.81;5982552;24;20171;-72
2022/06/07 09:38:07;;;;;;;11.65;10.90;;;;;;;23.43;47.76;92820.31;5972801;24;20208;-72
2022/06/07 09:40:41;;;;;;;10.48;9.88;;;;;;;23.26;45.71;92802.09;5980504;24;20213;-74
2022/06/07 09:43:17;;;;;;;10.52;9.93;;;;;;;23.24;47.68;92819.50;5982023;24;20164;-72
2022/06/07 09:45:59;;;;;;;11.07;10.30;;;;;;;23.32;45.95;92810.53;5979719;24;20218;-72
2022/06/07 09:48:27;;;;;;;11.00;10.20;;;;;;;23.56;47.55;92807.59;5981858;24;20196;-72
2022/06/07 09:51:22;;;;;;;11.95;11.00;;;;;;;23.57;49.22;92801.91;5977963;24;20242;-71
2022/06/07 09:53:57;;;;;;;11.18;10.48;;;;;;;23.90;46.27;92803.22;5982071;24;20177;-73
2022/06/07 09:56:29;;;;;;;10.80;10.18;;;;;;;23.78;47.14;92801.53;5977298;24;20215;-75
2022/06/07 09:58:54;;;;;;;11.00;10.02;;;;;;;23.75;45.04;92802.22;5981744;24;20165;-74
2022/06/07 10:01:32;;;;;;;10.93;10.10;;;;;;;23.77;50.28;92795.41;5943229;24;20227;-75
2022/06/07 10:04:28;;;;;;;11.00;10.27;;;;;;;23.96;44.12;92796.47;5953998;24;20178;-75
2022/06/07 10:06:58;;;;;;;10.55;9.75;;;;;;;23.89;46.93;92775.03;5948291;24;20231;-75
2022/06/07 10:09:30;;;;;;;10.73;9.82;;;;;;;24.13;45.17;92786.13;5955156;24;20226;-75
2022/06/07 10:12:14;;;;;;;10.85;10.15;;;;;;;24.44;46.16;92779.72;5967045;24;20215;-79
2022/06/07 10:14:51;;;;;;;10.35;9.73;;;;;;;24.18;45.36;92772.47;5981687;24;20173;-78
2022/06/07 10:17:20;;;;;;;11.48;10.63;;;;;;;24.35;44.34;92781.88;5972447;24;20248;-77
2022/06/07 10:20:07;;;;;;;10.70;9.93;;;;;;;23.97;46.41;92777.47;5981818;24;20173;-80
2022/06/07 10:22:54;;;;;;;9.77;9.20;;;;;;;23.99;47.00;92777.09;5971736;24;20205;-78
2022/06/07 10:25:35;;;;;;;10.60;9.90;;;;;;;24.03;45.02;92775.28;5980897;24;20186;-78
2022/06/07 10:28:21;;;;;;;10.07;9.48;;;;;;;24.14;44.34;92757.56;5982364;24;20161;-78
2022/06/07 10:30:47;;;;;;;10.23;9.63;;;;;;;24.38;44.64;92767.81;5979463;24;20209;-78
2022/06/07 10:33:47;;;;;;;9.85;9.30;;;;;;;24.23;43.44;92768.72;5982382;24;20207;-79
2022/06/07 10:36:15;;;;;;;9.75;8.98;;;;;;;24.00;42.13;92765.34;5978469;24;20284;-77
2022/06/07 10:39:02;;;;;;;10.70;10.00;;;;;;;24.25;44.83;92759.22;5948903;24;20203;-77
2022/06/07 10:41:54;;;;;;;9.40;8.90;;;;;;;24.56;43.95;92755.50;5976482;24;20211;-78
2022/06/07 10:44:33;;;;;;;10.18;9.48;;;;;;;24.30;41.04;92742.13;5982557;24;20752;-76
2022/06/07 10:47:15;;;;;;;10.02;9.32;;;;;;;25.06;40.88;92753.09;5974906;24;20217;-76
2022/06/07 10:49:50;;;;;;;9.70;9.10;;;;;;;25.38;39.72;92737.47;5958367;24;20165;-76
2022/06/07 10:52:51;;;;;;;11.23;10.43;;;;;;;25.28;41.85;92748.78;5973631;24;20226;-76
2022/06/07 10:55:34;;;;;;;9.57;9.00;;;;;;;24.63;45.91;92734.22;5948661;24;20174;-73
2022/06/07 10:58:05;;;;;;;11.55;10.75;;;;;;;24.53;46.69;92732.19;5981640;24;20186;-72
2022/06/07 11:00:58;;;;;;;9.05;8.55;;;;;;;25.14;43.98;92730.69;5978837;24;20193;-73
2022/06/07 11:03:38;;;;;;;9.70;9.00;;;;;;;25.64;40.50;92731.22;5974488;24;20233;-72
2022/06/07 11:09:30;;;;;;;9.88;9.13;;;;;;;26.02;40.25;92718.22;5980946;24;20178;-73
2022/06/07 11:12:03;;;;;;;9.70;8.88;;;;;;;25.81;42.42;92736.72;5960436;24;20517;-71
2022/06/07 11:14:37;;;;;;;10.00;9.40;;;;;;;25.00;43.51;92724.41;5981034;24;20163;-73
2022/06/07 11:17:11;;;;;;;9.75;8.95;;;;;;;25.26;43.52;92714.38;5973680;24;20215;-72
2022/06/07 11:19:36;;;;;;;8.77;8.27;;;;;;;24.95;44.39;92724.75;5981169;24;20298;-73
2022/06/07 11:22:05;;;;;;;9.65;9.02;;;;;;;25.44;43.60;92727.19;5973684;24;20241;-73
2022/06/07 11:24:50;;;;;;;8.85;8.25;;;;;;;25.59;42.93;92713.59;5981480;24;20187;-73
2022/06/07 11:27:21;;;;;;;9.48;8.90;;;;;;;25.72;39.76;92722.91;5973100;24;20263;-74
2022/06/07 11:29:47;;;;;;;9.45;8.73;;;;;;;25.42;40.61;92721.47;5980498;24;20164;-72
2022/06/07 11:32:53;;;;;;;9.90;9.30;;;;;;;25.52;42.11;92718.91;5973456;24;20253;-74
2022/06/07 11:35:48;;;;;;;9.95;9.35;;;;;;;25.89;39.80;92719.59;5979857;24;20171;-73
2022/06/07 11:38:21;;;;;;;9.23;8.70;;;;;;;25.74;41.47;92712.59;5981842;24;20163;-74
2022/06/07 11:40:47;;;;;;;9.65;9.05;;;;;;;25.93;40.04;92703.59;5978413;24;20226;-73
2022/06/07 11:43:50;;;;;;;9.27;8.68;;;;;;;25.83;41.71;92699.69;5981728;24;20197;-73
2022/06/07 11:46:51;;;;;;;9.15;8.45;;;;;;;25.42;40.29;92708.84;5976293;24;20251;-72
2022/06/07 11:49:20;;;;;;;9.60;8.90;;;;;;;24.96;42.62;92707.56;5981166;24;20164;-73
2022/06/07 11:51:52;;;;;;;9.73;9.13;;;;;;;24.59;42.45;92698.69;5947517;24;20293;-72
2022/06/07 11:54:24;;;;;;;9.52;9.02;;;;;;;24.38;42.63;92688.50;5947844;24;20200;-72